Time;durP1;ratioP1;P1;durP2;ratioP2;P2;SDS_P1;SDS_P2;PMS_P1;PMS_P2;Temp;Humidity;BMP_temperature;BMP_pressure;BME280_temperature;BME280_humidity;BME280_pressure;Samples;Min_cycle;Max_cycle;Signal;HPM_P1;HPM_P2
2022/02/15 00:01:00;;;;;;;28.92;22.38;;;;;;;1.35;100.00;95353.94;5093391;28;20093;-62
2022/02/15 00:03:26;;;;;;;26.35;20.88;;;;;;;1.29;100.00;95360.34;5091318;28;20028;-62
2022/02/15 00:05:51;;;;;;;26.10;21.25;;;;;;;1.26;100.00;95360.53;5090759;28;20032;-62
2022/02/15 00:08:16;;;;;;;28.40;22.52;;;;;;;1.28;100.00;95355.25;5091120;28;20479;-62
2022/02/15 00:10:44;;;;;;;34.20;26.30;;;;;;;1.33;100.00;95348.03;5072152;28;20097;-62
2022/02/15 00:13:09;;;;;;;36.13;26.80;;;;;;;1.37;100.00;95346.91;5090869;28;20454;-62
2022/02/15 00:15:35;;;;;;;34.58;25.38;;;;;;;1.37;100.00;95356.47;5089969;28;20024;-62
2022/02/15 00:18:00;;;;;;;32.97;25.30;;;;;;;1.54;100.00;95352.81;5089663;28;20108;-63
2022/02/15 00:20:27;;;;;;;29.63;24.02;;;;;;;1.46;100.00;95355.06;5088609;28;20055;-62
2022/02/15 00:22:52;;;;;;;29.77;23.90;;;;;;;1.40;100.00;95354.50;5091983;28;20039;-62
2022/02/15 00:25:20;;;;;;;42.08;30.27;;;;;;;1.42;100.00;95357.00;5091346;28;20024;-62
2022/02/15 00:27:46;;;;;;;41.38;30.42;;;;;;;1.42;100.00;95350.03;5088410;28;20028;-62
2022/02/15 00:30:11;;;;;;;31.10;25.48;;;;;;;1.38;100.00;95343.38;5089717;28;20036;-62
2022/02/15 00:32:37;;;;;;;32.42;24.90;;;;;;;1.33;100.00;95349.81;5090355;28;20028;-61
2022/02/15 00:35:04;;;;;;;39.85;27.88;;;;;;;1.31;100.00;95349.03;5087389;28;20111;-62
2022/02/15 00:37:29;;;;;;;43.85;28.30;;;;;;;1.27;100.00;95356.19;5082097;28;20020;-62
2022/02/15 00:39:54;;;;;;;42.17;30.30;;;;;;;1.26;100.00;95355.34;5090360;28;20020;-62
2022/02/15 00:42:20;;;;;;;36.20;25.65;;;;;;;1.28;100.00;95357.84;5092398;28;20024;-62
2022/02/15 00:44:45;;;;;;;33.67;23.83;;;;;;;1.31;100.00;95360.25;5087449;28;20028;-62
2022/02/15 00:47:11;;;;;;;28.85;23.25;;;;;;;1.39;100.00;95357.19;5089289;28;20019;-62
2022/02/15 00:49:36;;;;;;;33.53;23.65;;;;;;;1.40;100.00;95356.28;5085109;28;20023;-62
2022/02/15 00:52:02;;;;;;;27.48;20.05;;;;;;;1.40;100.00;95361.47;5089683;28;20043;-62
2022/02/15 00:54:27;;;;;;;26.27;20.33;;;;;;;1.45;100.00;95356.81;5091211;28;20028;-62
2022/02/15 00:56:52;;;;;;;28.85;19.85;;;;;;;1.47;100.00;95356.72;5090732;28;20073;-62
2022/02/15 00:59:18;;;;;;;26.90;20.95;;;;;;;1.47;100.00;95354.97;5088216;28;20061;-62
2022/02/15 01:01:43;;;;;;;26.25;19.95;;;;;;;1.51;100.00;95350.41;5088775;28;20657;-62
2022/02/15 01:04:09;;;;;;;27.27;19.67;;;;;;;1.54;100.00;95363.19;5089816;28;20032;-62
2022/02/15 01:06:35;;;;;;;33.00;24.98;;;;;;;1.53;100.00;95361.53;5086706;28;20437;-62
2022/02/15 01:09:01;;;;;;;34.78;24.88;;;;;;;1.54;100.00;95361.41;5090354;28;20116;-62
2022/02/15 01:11:26;;;;;;;34.47;25.80;;;;;;;1.83;100.00;95371.78;5090283;28;20107;-62
2022/02/15 01:13:52;;;;;;;34.72;24.05;;;;;;;1.75;100.00;95373.19;5091033;28;20028;-62
2022/02/15 01:16:17;;;;;;;40.60;28.13;;;;;;;1.80;100.00;95373.72;5088073;28;20032;-62
2022/02/15 01:18:43;;;;;;;34.38;24.95;;;;;;;1.67;100.00;95374.50;5089385;28;20039;-62
2022/02/15 01:21:08;;;;;;;34.03;21.60;;;;;;;1.70;100.00;95382.09;5090632;28;20036;-62
2022/02/15 01:23:34;;;;;;;36.35;24.00;;;;;;;1.68;100.00;95380.50;5089990;28;20123;-62
2022/02/15 01:25:59;;;;;;;34.50;23.77;;;;;;;1.68;100.00;95380.50;5089690;28;20687;-62
2022/02/15 01:28:25;;;;;;;34.88;23.67;;;;;;;1.65;100.00;95380.72;5087638;28;20038;-62
2022/02/15 01:30:50;;;;;;;33.00;22.60;;;;;;;1.62;100.00;95389.50;5087905;28;20031;-62
2022/02/15 01:33:15;;;;;;;29.13;18.17;;;;;;;1.66;100.00;95384.97;5087975;28;20445;-62
2022/02/15 01:35:41;;;;;;;26.35;18.30;;;;;;;1.62;100.00;95391.28;5091402;28;20035;-62
2022/02/15 01:38:08;;;;;;;16.58;13.27;;;;;;;1.63;100.00;95393.75;5087804;28;20079;-61
2022/02/15 01:40:33;;;;;;;14.13;12.27;;;;;;;1.66;100.00;95393.59;5085987;28;20028;-62
2022/02/15 01:42:59;;;;;;;15.75;11.85;;;;;;;1.69;100.00;95393.41;5091428;28;20479;-62
2022/02/15 01:45:24;;;;;;;19.15;13.95;;;;;;;1.73;100.00;95388.84;5089360;28;20072;-62
2022/02/15 01:47:50;;;;;;;16.23;11.05;;;;;;;1.79;100.00;95398.00;5087586;28;20074;-62
2022/02/15 01:50:16;;;;;;;15.30;12.43;;;;;;;1.83;100.00;95397.75;5090106;28;20036;-62
2022/02/15 01:52:42;;;;;;;17.17;12.68;;;;;;;1.85;100.00;95397.63;5089207;28;20044;-62
2022/02/15 01:55:11;;;;;;;14.20;10.65;;;;;;;1.96;100.00;95395.19;5090441;28;20032;-62
2022/02/15 01:57:36;;;;;;;19.08;12.80;;;;;;;2.00;100.00;95399.28;5088357;28;20037;-62
2022/02/15 02:00:06;;;;;;;18.25;15.07;;;;;;;1.99;100.00;95399.38;5090676;28;20031;-62
2022/02/15 02:02:31;;;;;;;17.25;14.35;;;;;;;1.98;100.00;95397.69;5089582;28;20066;-61
2022/02/15 02:07:41;;;;;;;15.63;13.32;;;;;;;1.92;100.00;95393.75;5087581;28;20120;-62
2022/02/15 02:10:07;;;;;;;15.90;14.00;;;;;;;1.89;100.00;95399.13;5089661;28;20068;-62
2022/02/15 02:12:33;;;;;;;15.70;12.98;;;;;;;1.85;100.00;95395.88;5089330;28;20060;-62
2022/02/15 02:15:01;;;;;;;15.27;13.60;;;;;;;1.89;100.00;95399.13;5087572;28;20025;-62
2022/02/15 02:17:27;;;;;;;17.05;13.73;;;;;;;1.87;100.00;95398.34;5090884;28;20103;-63
2022/02/15 02:19:56;;;;;;;16.70;13.57;;;;;;;1.95;100.00;95392.69;5086501;28;20059;-62
2022/02/15 02:22:27;;;;;;;17.60;14.57;;;;;;;1.94;100.00;95401.41;5082415;28;20364;-62
2022/02/15 02:24:54;;;;;;;17.40;15.68;;;;;;;1.89;100.00;95400.88;5091427;28;20115;-62
2022/02/15 02:27:23;;;;;;;17.65;14.52;;;;;;;1.91;100.00;95399.00;5094749;28;20060;-62
2022/02/15 02:29:51;;;;;;;20.00;15.45;;;;;;;1.91;100.00;95397.25;5095928;28;20090;-62
2022/02/15 02:32:18;;;;;;;16.17;14.50;;;;;;;1.88;100.00;95400.06;5093009;28;20116;-62
2022/02/15 02:34:43;;;;;;;17.55;14.85;;;;;;;1.86;100.00;95401.88;5095132;28;20035;-62
2022/02/15 02:37:08;;;;;;;17.17;14.68;;;;;;;1.83;100.00;95408.13;5092996;28;20040;-62
2022/02/15 02:39:34;;;;;;;16.52;14.75;;;;;;;1.84;100.00;95406.34;5096662;28;20407;-62
2022/02/15 02:41:59;;;;;;;17.83;14.45;;;;;;;1.88;100.00;95418.22;5094208;28;20063;-62
2022/02/15 02:44:24;;;;;;;17.20;15.15;;;;;;;1.90;100.00;95418.13;5094418;28;20487;-62
2022/02/15 02:46:50;;;;;;;19.15;15.98;;;;;;;1.89;100.00;95414.69;5094673;28;20051;-62
2022/02/15 02:49:15;;;;;;;17.70;15.73;;;;;;;1.91;100.00;95412.84;5094133;28;20475;-62
2022/02/15 02:51:41;;;;;;;17.05;14.32;;;;;;;1.91;100.00;95423.22;5078031;28;20030;-62
2022/02/15 02:54:06;;;;;;;17.05;14.82;;;;;;;1.89;100.00;95419.91;5093643;28;20035;-62
2022/02/15 02:56:31;;;;;;;16.13;13.95;;;;;;;1.86;100.00;95420.91;5092963;28;20085;-62
2022/02/15 02:58:57;;;;;;;15.68;14.05;;;;;;;1.85;100.00;95418.41;5092928;28;20020;-62
2022/02/15 03:01:22;;;;;;;16.05;14.18;;;;;;;1.86;100.00;95417.47;5095752;28;20502;-62
2022/02/15 03:03:47;;;;;;;15.32;13.15;;;;;;;1.90;100.00;95412.94;5093820;28;20404;-62
2022/02/15 03:06:13;;;;;;;16.10;13.90;;;;;;;1.94;100.00;95417.84;5095976;28;20513;-62
2022/02/15 03:08:38;;;;;;;14.50;12.48;;;;;;;1.94;100.00;95417.00;5094619;28;20028;-62
2022/02/15 03:11:03;;;;;;;14.38;12.88;;;;;;;1.93;100.00;95416.16;5097031;28;20127;-62
2022/02/15 03:13:29;;;;;;;12.48;11.23;;;;;;;1.93;100.00;95416.16;5092280;28;20491;-62
2022/02/15 03:15:54;;;;;;;11.95;10.75;;;;;;;1.94;100.00;95417.00;5096867;28;20024;-62
2022/02/15 03:18:19;;;;;;;12.45;9.95;;;;;;;2.02;100.00;95425.16;5095316;28;20530;-62
2022/02/15 03:20:45;;;;;;;10.60;9.50;;;;;;;2.03;100.00;95425.97;5094505;28;20236;-62
2022/02/15 03:23:10;;;;;;;11.85;9.02;;;;;;;1.98;100.00;95429.69;5095185;28;20042;-62
2022/02/15 03:25:36;;;;;;;9.35;8.35;;;;;;;1.98;100.00;95436.63;5092925;28;20025;-62
2022/02/15 03:28:02;;;;;;;9.88;8.88;;;;;;;1.96;100.00;95434.16;5094138;28;20023;-62
2022/02/15 03:30:27;;;;;;;12.07;9.18;;;;;;;1.97;100.00;95438.41;5094686;28;20060;-62
2022/02/15 03:32:52;;;;;;;10.48;9.32;;;;;;;1.96;100.00;95439.34;5096994;28;20031;-62
2022/02/15 03:35:19;;;;;;;11.07;9.90;;;;;;;2.01;100.00;95433.88;5097790;28;20024;-62
2022/02/15 03:37:44;;;;;;;9.70;8.70;;;;;;;2.02;100.00;95447.69;5092904;28;20113;-62
2022/02/15 03:40:11;;;;;;;9.15;8.35;;;;;;;2.00;100.00;95452.97;5094393;28;20149;-62
2022/02/15 03:45:21;;;;;;;11.88;10.73;;;;;;;2.02;100.00;95461.50;5093255;28;20096;-62
2022/02/15 03:47:46;;;;;;;13.38;10.20;;;;;;;2.05;100.00;95463.91;5093683;28;20390;-62
2022/02/15 03:50:12;;;;;;;14.50;11.93;;;;;;;2.07;100.00;95479.38;5094175;28;20107;-62
2022/02/15 03:52:37;;;;;;;11.82;10.63;;;;;;;2.09;100.00;95483.56;5093833;28;20115;-62
2022/02/15 03:55:05;;;;;;;10.75;8.40;;;;;;;2.10;100.00;95493.03;5093852;28;20063;-62
2022/02/15 03:57:35;;;;;;;10.68;9.43;;;;;;;2.11;100.00;95491.28;5093574;28;20035;-62
2022/02/15 04:00:01;;;;;;;11.05;9.77;;;;;;;2.12;100.00;95492.94;5093769;28;20165;-62
2022/02/15 04:02:26;;;;;;;10.50;9.50;;;;;;;2.12;100.00;95504.16;5093735;28;20039;-62
2022/02/15 04:04:52;;;;;;;9.65;8.65;;;;;;;2.13;100.00;95505.00;5093695;28;20020;-61
2022/02/15 04:07:17;;;;;;;7.38;6.65;;;;;;;2.12;100.00;95511.94;5094177;28;20031;-62
2022/02/15 04:09:42;;;;;;;9.15;6.95;;;;;;;2.12;100.00;95519.72;5093254;28;20069;-62
2022/02/15 04:12:08;;;;;;;8.88;7.50;;;;;;;2.11;100.00;95523.25;5094023;28;20044;-62
2022/02/15 04:14:33;;;;;;;6.65;6.07;;;;;;;2.11;100.00;95531.06;5093440;28;20055;-62
2022/02/15 04:16:58;;;;;;;6.57;5.88;;;;;;;2.11;100.00;95532.84;5093838;28;20399;-62
2022/02/15 04:19:24;;;;;;;12.55;11.25;;;;;;;2.11;100.00;95538.03;5093202;28;20131;-62
2022/02/15 04:21:49;;;;;;;18.15;13.73;;;;;;;2.10;100.00;95536.31;5093259;28;20158;-62
2022/02/15 04:24:14;;;;;;;15.15;12.57;;;;;;;2.18;100.00;95538.47;5093688;28;20518;-62
2022/02/15 04:26:40;;;;;;;19.38;12.50;;;;;;;2.08;100.00;95545.97;5093187;28;20036;-62
2022/02/15 04:29:05;;;;;;;11.00;8.88;;;;;;;2.04;100.00;95547.09;5093454;28;20114;-62
2022/02/15 04:31:30;;;;;;;8.43;6.68;;;;;;;2.04;100.00;95555.75;5093622;28;20544;-62
2022/02/15 04:33:56;;;;;;;5.88;4.63;;;;;;;2.04;100.00;95554.88;5092972;28;20507;-62
2022/02/15 04:36:21;;;;;;;3.20;3.00;;;;;;;1.98;100.00;95569.91;5093160;28;20036;-62
2022/02/15 04:38:47;;;;;;;3.22;3.00;;;;;;;1.97;100.00;95568.25;5092962;28;20021;-62
2022/02/15 04:41:12;;;;;;;3.25;3.00;;;;;;;1.92;100.00;95565.09;5093109;28;20028;-62
2022/02/15 04:43:37;;;;;;;2.63;2.50;;;;;;;1.93;100.00;95566.78;5092577;28;20024;-62
2022/02/15 04:46:03;;;;;;;2.92;2.72;;;;;;;1.94;100.00;95570.19;5092422;28;20027;-62
2022/02/15 04:48:28;;;;;;;2.30;2.20;;;;;;;1.92;100.00;95577.22;5091708;28;20037;-62
2022/02/15 04:50:54;;;;;;;2.20;2.10;;;;;;;1.90;100.00;95579.09;5092796;28;20028;-62
2022/02/15 04:53:19;;;;;;;2.67;2.17;;;;;;;1.89;100.00;95591.25;5092685;28;20096;-62
2022/02/15 04:55:45;;;;;;;2.72;2.63;;;;;;;1.89;100.00;95590.41;5091878;28;20030;-62
2022/02/15 04:58:10;;;;;;;2.45;2.25;;;;;;;1.86;100.00;95592.25;5092920;28;20035;-62
2022/02/15 05:00:36;;;;;;;6.45;4.30;;;;;;;1.85;100.00;95597.53;5093135;28;20036;-62
2022/02/15 05:03:01;;;;;;;9.95;6.25;;;;;;;1.86;100.00;95594.00;5090762;28;20028;-62
2022/02/15 05:05:26;;;;;;;3.15;2.85;;;;;;;1.85;100.00;95598.38;5092261;28;20498;-63
2022/02/15 05:07:52;;;;;;;4.57;3.30;;;;;;;1.85;100.00;95594.94;5092052;28;20115;-62
2022/02/15 05:10:17;;;;;;;5.72;3.55;;;;;;;1.84;100.00;95606.25;5092785;28;20044;-62
2022/02/15 05:12:43;;;;;;;4.40;3.40;;;;;;;1.83;100.00;95613.22;5092158;28;20024;-62
2022/02/15 05:15:10;;;;;;;4.15;3.83;;;;;;;1.81;100.00;95614.22;5091875;28;20483;-62
2022/02/15 05:17:43;;;;;;;5.28;3.72;;;;;;;1.80;100.00;95615.16;5091796;28;20040;-62
2022/02/15 05:20:14;;;;;;;7.03;5.32;;;;;;;1.77;100.00;95621.38;5093642;28;20027;-62
2022/02/15 05:22:40;;;;;;;8.38;7.35;;;;;;;1.84;100.00;95619.22;5092467;28;20495;-62
2022/02/15 05:25:06;;;;;;;11.55;8.95;;;;;;;1.82;100.00;95616.75;5092270;28;20023;-62
2022/02/15 05:27:31;;;;;;;9.48;8.15;;;;;;;1.86;100.00;95612.19;5092219;28;20391;-62
2022/02/15 05:29:57;;;;;;;8.40;7.05;;;;;;;1.91;100.00;95622.31;5092285;28;20027;-62
2022/02/15 05:32:22;;;;;;;8.52;6.93;;;;;;;1.86;100.00;95622.56;5091951;28;20028;-62
2022/02/15 05:34:48;;;;;;;5.85;5.25;;;;;;;1.84;100.00;95619.22;5091419;28;20024;-62
2022/02/15 05:37:13;;;;;;;7.30;5.32;;;;;;;1.81;100.00;95633.25;5092119;28;20107;-62
2022/02/15 05:39:39;;;;;;;5.47;4.97;;;;;;;1.82;100.00;95632.31;5091720;28;20016;-62
2022/02/15 05:42:06;;;;;;;3.10;2.90;;;;;;;1.99;100.00;95641.69;5091821;28;20051;-63
2022/02/15 05:44:31;;;;;;;4.07;3.50;;;;;;;1.87;100.00;95645.00;5091641;28;20097;-62
2022/02/15 05:46:57;;;;;;;4.65;4.28;;;;;;;1.82;100.00;95652.22;5091777;28;20472;-62
2022/02/15 05:49:22;;;;;;;5.20;4.72;;;;;;;1.80;100.00;95664.47;5091546;28;20028;-62
2022/02/15 05:51:47;;;;;;;5.40;3.70;;;;;;;1.79;100.00;95663.66;5091826;28;20510;-62
2022/02/15 05:54:13;;;;;;;3.60;3.30;;;;;;;1.81;100.00;95668.72;5091435;28;20036;-62
2022/02/15 05:56:38;;;;;;;3.88;3.58;;;;;;;1.84;100.00;95661.63;5091416;28;20027;-62
2022/02/15 05:59:04;;;;;;;3.85;3.55;;;;;;;1.82;100.00;95666.06;5090866;28;20024;-62
2022/02/15 06:01:29;;;;;;;4.72;4.15;;;;;;;1.76;100.00;95669.00;5092107;28;20024;-62
2022/02/15 06:04:12;;;;;;;4.32;4.03;;;;;;;1.73;100.00;95681.34;5090901;28;20024;-62
2022/02/15 06:06:39;;;;;;;4.05;3.75;;;;;;;1.70;100.00;95682.34;5091410;28;20499;-62
2022/02/15 06:09:05;;;;;;;3.53;3.33;;;;;;;1.68;100.00;95685.03;5071938;28;20524;-62
2022/02/15 06:11:30;;;;;;;3.67;3.47;;;;;;;1.72;100.00;95698.66;5091816;28;20024;-62
2022/02/15 06:13:57;;;;;;;5.13;4.70;;;;;;;1.73;100.00;95696.91;5090896;28;20028;-62
2022/02/15 06:16:23;;;;;;;4.78;4.38;;;;;;;1.73;100.00;95699.50;5090379;28;20515;-62
2022/02/15 06:18:55;;;;;;;5.70;3.92;;;;;;;1.72;100.00;95696.06;5090724;28;20109;-62
2022/02/15 06:21:21;;;;;;;9.68;7.03;;;;;;;1.73;100.00;95696.91;5088209;28;20032;-62
2022/02/15 06:23:46;;;;;;;8.52;7.53;;;;;;;1.67;100.00;95690.28;5090081;28;20044;-62
2022/02/15 06:26:12;;;;;;;7.95;7.18;;;;;;;1.59;100.00;95706.28;5091439;28;20034;-62
2022/02/15 06:28:37;;;;;;;10.70;5.25;;;;;;;1.53;100.00;95704.88;5090472;28;20024;-61
2022/02/15 06:31:03;;;;;;;5.63;5.13;;;;;;;1.59;100.00;95711.50;5090702;28;20031;-62
2022/02/15 06:33:28;;;;;;;5.60;5.10;;;;;;;1.51;100.00;95711.91;5090938;28;20467;-62
2022/02/15 06:35:53;;;;;;;6.32;5.78;;;;;;;1.97;100.00;95713.66;5091217;28;20558;-62
2022/02/15 06:38:19;;;;;;;12.82;11.70;;;;;;;1.79;100.00;95722.50;5090092;28;20040;-62
2022/02/15 06:40:44;;;;;;;8.52;7.82;;;;;;;1.58;100.00;95722.78;5091118;28;20034;-62
2022/02/15 06:43:10;;;;;;;8.40;7.57;;;;;;;1.46;100.00;95726.91;5089881;28;20120;-62
2022/02/15 06:45:36;;;;;;;15.57;13.98;;;;;;;1.39;100.00;95741.16;5089297;28;20039;-62
2022/02/15 06:48:01;;;;;;;9.27;8.15;;;;;;;1.36;100.00;95741.31;5088971;28;20603;-63
2022/02/15 06:50:27;;;;;;;7.82;7.05;;;;;;;1.37;100.00;95741.22;5090968;28;20032;-62
2022/02/15 06:52:52;;;;;;;8.55;7.53;;;;;;;1.37;100.00;95743.81;5088822;28;20028;-61
2022/02/15 06:55:18;;;;;;;7.75;6.97;;;;;;;1.38;100.00;95742.91;5089989;28;20032;-62
2022/02/15 06:57:43;;;;;;;6.78;6.28;;;;;;;1.39;100.00;95748.94;5089308;28;20034;-62
2022/02/15 07:00:09;;;;;;;5.22;4.75;;;;;;;1.50;100.00;95758.72;5088103;28;20089;-62
2022/02/15 07:02:35;;;;;;;7.25;6.65;;;;;;;1.53;100.00;95755.97;5103837;28;20028;-61
2022/02/15 07:05:01;;;;;;;4.80;4.40;;;;;;;1.56;100.00;95761.81;5089521;28;20138;-62
2022/02/15 07:07:26;;;;;;;5.63;5.13;;;;;;;1.59;100.00;95765.16;5089320;28;20077;-62
2022/02/15 07:09:51;;;;;;;6.97;6.25;;;;;;;1.55;100.00;95765.34;5089240;28;20451;-62
2022/02/15 07:12:17;;;;;;;6.20;5.60;;;;;;;1.56;100.00;95766.16;5090778;28;20665;-61
2022/02/15 07:14:42;;;;;;;5.72;5.28;;;;;;;1.56;100.00;95773.94;5090833;28;20049;-62
2022/02/15 07:17:07;;;;;;;9.15;5.85;;;;;;;1.60;100.00;95778.03;5093713;28;20578;-62
2022/02/15 07:19:33;;;;;;;7.13;6.53;;;;;;;1.62;100.00;95783.16;5094106;28;20040;-62
2022/02/15 07:22:03;;;;;;;11.60;6.28;;;;;;;1.64;100.00;95794.28;5094631;28;20024;-62
2022/02/15 07:24:29;;;;;;;6.18;5.68;;;;;;;1.65;100.00;95796.78;5094305;28;20102;-62
2022/02/15 07:26:55;;;;;;;6.70;6.10;;;;;;;1.71;100.00;95795.63;5094951;28;20031;-62
2022/02/15 07:29:21;;;;;;;8.32;7.05;;;;;;;1.75;100.00;95793.69;5094216;28;20043;-62
2022/02/15 07:31:48;;;;;;;8.90;8.13;;;;;;;1.70;100.00;95797.41;5093864;28;20128;-62
2022/02/15 07:34:14;;;;;;;7.13;6.53;;;;;;;1.72;100.00;95794.69;5094166;28;20031;-62
2022/02/15 07:36:39;;;;;;;6.13;5.63;;;;;;;1.75;100.00;95799.72;5094494;28;20054;-62
2022/02/15 07:39:05;;;;;;;7.00;6.25;;;;;;;1.80;100.00;95797.72;5093139;28;20090;-62
2022/02/15 07:41:30;;;;;;;8.60;6.65;;;;;;;1.86;100.00;95796.53;5090811;28;20040;-62
2022/02/15 07:43:56;;;;;;;5.88;5.38;;;;;;;1.89;100.00;95798.13;5093686;28;20036;-62
2022/02/15 07:46:22;;;;;;;6.55;5.95;;;;;;;1.90;100.00;95807.59;5093154;28;20063;-61
2022/02/15 07:48:49;;;;;;;5.90;4.93;;;;;;;2.02;100.00;95812.09;5092656;28;20028;-62
2022/02/15 07:51:15;;;;;;;5.90;5.43;;;;;;;2.07;100.00;95809.22;5094048;28;20031;-61
2022/02/15 07:53:40;;;;;;;8.77;7.18;;;;;;;2.13;100.00;95804.53;5098457;28;20020;-63
2022/02/15 07:56:06;;;;;;;8.00;7.20;;;;;;;2.13;100.00;95807.13;5101120;28;20055;-63
2022/02/15 07:58:31;;;;;;;8.27;7.00;;;;;;;2.23;100.00;95820.41;5099483;28;20032;-63
2022/02/15 08:00:58;;;;;;;10.25;7.07;;;;;;;2.25;100.00;95831.56;5097149;28;20042;-63
2022/02/15 08:03:24;;;;;;;5.63;5.15;;;;;;;2.24;100.00;95818.69;5098396;28;20032;-63
2022/02/15 08:05:50;;;;;;;9.80;8.90;;;;;;;2.21;100.00;95824.03;5097929;28;20028;-64
2022/02/15 08:08:17;;;;;;;8.02;7.20;;;;;;;2.25;100.00;95830.75;5096708;28;20024;-63
2022/02/15 08:10:43;;;;;;;8.65;7.50;;;;;;;2.28;100.00;95828.78;5096349;28;20099;-64
2022/02/15 08:13:09;;;;;;;7.43;6.72;;;;;;;2.28;100.00;95835.75;5083939;28;20566;-64
2022/02/15 08:15:38;;;;;;;6.50;5.90;;;;;;;2.30;100.00;95831.31;5100971;28;20095;-62
2022/02/15 08:18:04;;;;;;;6.72;6.13;;;;;;;2.37;100.00;95834.41;5098733;28;20044;-66
2022/02/15 08:20:31;;;;;;;8.40;7.00;;;;;;;2.41;100.00;95838.50;5101677;28;20502;-63
2022/02/15 08:22:56;;;;;;;8.55;6.38;;;;;;;2.48;100.00;95834.59;5099534;28;20038;-64
2022/02/15 08:25:22;;;;;;;6.10;5.57;;;;;;;2.53;100.00;95845.56;5102861;28;20027;-64
2022/02/15 08:27:48;;;;;;;5.53;5.10;;;;;;;2.59;100.00;95844.38;5101812;28;20415;-63
2022/02/15 08:30:15;;;;;;;5.10;4.60;;;;;;;2.61;100.00;95854.69;5097025;28;20643;-63
2022/02/15 08:32:41;;;;;;;5.53;5.07;;;;;;;2.64;100.00;95851.91;5100091;28;20076;-63
2022/02/15 08:35:07;;;;;;;6.68;6.07;;;;;;;2.66;100.00;95861.31;5100536;28;20032;-63
2022/02/15 08:37:34;;;;;;;5.75;5.25;;;;;;;2.70;100.00;95859.34;5102570;28;20386;-63
2022/02/15 08:40:00;;;;;;;6.93;5.28;;;;;;;2.75;100.00;95853.91;5098498;28;20071;-63
2022/02/15 08:42:26;;;;;;;7.13;6.40;;;;;;;2.85;100.00;95855.88;5101735;28;20134;-63
2022/02/15 08:44:53;;;;;;;6.72;6.20;;;;;;;2.89;100.00;95853.94;5100110;28;20122;-63
2022/02/15 08:47:21;;;;;;;6.25;5.75;;;;;;;2.92;100.00;95850.28;5096681;28;20107;-63
2022/02/15 08:49:51;;;;;;;6.00;5.40;;;;;;;2.99;100.00;95857.66;5099948;28;20169;-64
2022/02/15 08:52:17;;;;;;;6.82;6.18;;;;;;;2.96;100.00;95852.63;5083542;28;20024;-62
2022/02/15 08:54:43;;;;;;;6.55;5.93;;;;;;;3.04;100.00;95859.97;5100219;28;20384;-63
2022/02/15 08:57:09;;;;;;;6.55;5.63;;;;;;;3.08;100.00;95860.63;5101998;28;20099;-65
2022/02/15 08:59:36;;;;;;;7.93;4.53;;;;;;;3.09;100.00;95859.69;5099854;28;20055;-64
2022/02/15 09:02:02;;;;;;;5.80;5.07;;;;;;;3.09;100.00;95867.50;5103763;27;20028;-65
2022/02/15 09:04:27;;;;;;;9.80;7.70;;;;;;;3.08;100.00;95869.28;5080947;28;20055;-66
2022/02/15 09:06:54;;;;;;;7.22;5.60;;;;;;;3.10;100.00;95869.19;5099748;28;20035;-65
2022/02/15 09:09:20;;;;;;;4.30;3.97;;;;;;;3.07;100.00;95877.16;5099696;28;20028;-64
2022/02/15 09:11:45;;;;;;;5.47;4.32;;;;;;;3.02;100.00;95867.03;5096234;28;20027;-64
2022/02/15 09:14:11;;;;;;;4.78;4.47;;;;;;;3.01;100.00;95870.56;5099978;28;20441;-52
2022/02/15 09:16:38;;;;;;;4.40;4.10;;;;;;;3.04;100.00;95872.13;5099897;28;20024;-54
2022/02/15 09:19:03;;;;;;;4.10;3.80;;;;;;;3.14;100.00;95876.69;5099556;28;20040;-53
2022/02/15 09:21:29;;;;;;;5.30;4.80;;;;;;;3.17;100.00;95875.69;5098087;28;20503;-54
2022/02/15 09:23:54;;;;;;;5.00;4.60;;;;;;;3.18;100.00;95876.50;5097253;28;20030;-53
2022/02/15 09:26:19;;;;;;;6.03;5.43;;;;;;;3.14;100.00;95876.69;5097917;28;20051;-54
2022/02/15 09:28:45;;;;;;;4.13;3.80;;;;;;;3.15;100.00;95872.34;5095163;28;20032;-52
2022/02/15 09:31:10;;;;;;;3.63;3.33;;;;;;;3.14;100.00;95875.88;5091129;28;20031;-53
2022/02/15 09:33:35;;;;;;;3.97;3.67;;;;;;;3.13;100.00;95869.81;5090370;28;20452;-54
2022/02/15 09:36:01;;;;;;;3.92;3.63;;;;;;;3.14;100.00;95875.88;5090541;28;20027;-51
2022/02/15 09:38:26;;;;;;;3.20;3.00;;;;;;;3.20;100.00;95869.44;5090798;28;20027;-52
2022/02/15 09:40:52;;;;;;;3.15;2.95;;;;;;;3.25;100.00;95877.84;5090995;28;20407;-54
2022/02/15 09:43:17;;;;;;;3.53;3.33;;;;;;;3.29;100.00;95874.13;5090737;28;20040;-51
2022/02/15 09:45:48;;;;;;;2.75;2.65;;;;;;;3.29;100.00;95871.50;5089540;28;20020;-53
2022/02/15 09:48:14;;;;;;;3.92;2.50;;;;;;;3.27;100.00;95870.78;5090216;28;20035;-51
2022/02/15 09:50:40;;;;;;;4.88;2.70;;;;;;;3.27;100.00;95870.78;5091570;28;20031;-53
2022/02/15 09:53:06;;;;;;;2.70;2.33;;;;;;;3.32;100.00;95873.09;5090952;28;20031;-55
2022/02/15 09:55:32;;;;;;;4.03;2.00;;;;;;;3.51;100.00;95878.03;5090245;28;20521;-54
2022/02/15 09:57:57;;;;;;;2.03;1.92;;;;;;;3.67;100.00;95880.50;5091427;28;20020;-52
2022/02/15 10:00:23;;;;;;;2.22;2.03;;;;;;;3.77;98.83;95878.19;5090614;28;20032;-55
2022/02/15 10:02:49;;;;;;;2.13;1.92;;;;;;;3.84;98.42;95882.91;5091350;28;20036;-50
2022/02/15 10:05:16;;;;;;;2.97;2.22;;;;;;;3.94;98.85;95887.53;5091719;28;20035;-55
2022/02/15 10:07:53;;;;;;;3.15;2.95;;;;;;;4.07;98.11;95879.78;5089027;28;20020;-52
2022/02/15 10:10:33;;;;;;;3.97;3.38;;;;;;;4.17;95.37;95891.31;5087819;28;20036;-53
2022/02/15 10:13:04;;;;;;;4.30;3.92;;;;;;;4.34;94.89;95892.00;5087459;28;20043;-54
2022/02/15 10:15:34;;;;;;;4.13;3.50;;;;;;;4.42;95.51;95889.72;5087267;28;20020;-52
2022/02/15 10:18:04;;;;;;;2.38;2.28;;;;;;;4.53;95.47;95887.28;5089978;28;20047;-52
2022/02/15 10:20:29;;;;;;;1.70;1.63;;;;;;;4.52;94.59;95890.78;5090246;28;20024;-48
2022/02/15 10:23:20;;;;;;;1.90;1.80;;;;;;;4.61;94.94;95896.38;5090650;28;20437;-50
2022/02/15 10:25:47;;;;;;;2.30;2.13;;;;;;;4.51;95.58;95896.94;5090347;28;20027;-54
2022/02/15 10:28:27;;;;;;;2.03;1.92;;;;;;;4.69;95.03;95902.75;5089608;28;20103;-55
2022/02/15 10:30:59;;;;;;;2.10;2.00;;;;;;;4.81;94.17;95906.34;5086293;28;20114;-51
2022/02/15 10:33:33;;;;;;;2.33;2.13;;;;;;;4.95;93.10;95909.78;5090802;28;20024;-52
2022/02/15 10:36:09;;;;;;;9.10;6.63;;;;;;;5.07;92.14;95906.38;5089395;28;20016;-54
2022/02/15 10:38:36;;;;;;;11.20;7.05;;;;;;;5.10;92.33;95906.16;5086550;28;20024;-51
2022/02/15 10:41:05;;;;;;;5.53;4.72;;;;;;;5.12;90.40;95906.88;5087596;28;20035;-47
2022/02/15 10:44:00;;;;;;;4.57;4.18;;;;;;;5.24;91.92;95910.44;5090027;28;20479;-48
2022/02/15 10:46:28;;;;;;;4.20;2.95;;;;;;;5.43;90.94;95897.00;5074598;28;20032;-50
2022/02/15 10:48:55;;;;;;;4.25;2.67;;;;;;;5.44;90.68;95905.66;5095476;28;20475;-53
2022/02/15 10:51:22;;;;;;;2.88;2.67;;;;;;;5.60;91.24;95910.66;5094556;28;20036;-53
2022/02/15 10:53:48;;;;;;;4.60;4.20;;;;;;;5.76;91.17;95910.44;5094803;28;20395;-54
2022/02/15 10:56:14;;;;;;;3.65;3.35;;;;;;;5.86;91.38;95914.06;5094585;28;20030;-54
2022/02/15 10:58:40;;;;;;;4.10;2.50;;;;;;;5.92;88.83;95910.19;5093106;28;20381;-52
2022/02/15 11:01:07;;;;;;;3.30;2.42;;;;;;;5.95;89.46;95917.81;5094503;28;20040;-50
2022/02/15 11:03:34;;;;;;;2.70;2.50;;;;;;;6.20;87.63;95918.72;5091148;28;20491;-51
2022/02/15 11:06:00;;;;;;;1.92;1.90;;;;;;;6.27;85.84;95917.34;5091772;28;20442;-51
2022/02/15 11:08:27;;;;;;;2.05;1.95;;;;;;;6.56;84.22;95924.88;5092113;28;20028;-49
2022/02/15 11:11:07;;;;;;;1.30;1.30;;;;;;;6.56;82.05;95924.88;5094754;28;20084;-49
2022/02/15 11:13:34;;;;;;;1.83;1.70;;;;;;;6.35;81.79;95923.81;5089043;28;20103;-51
2022/02/15 11:16:03;;;;;;;1.92;1.75;;;;;;;6.40;82.96;95922.53;5093389;28;20074;-48
2022/02/15 11:18:32;;;;;;;1.55;1.20;;;;;;;6.40;81.47;95919.91;5089376;28;20040;-54
2022/02/15 11:21:05;;;;;;;3.70;1.95;;;;;;;6.23;80.98;95926.34;5093159;28;20024;-52
2022/02/15 11:23:32;;;;;;;2.17;2.08;;;;;;;6.48;80.23;95931.63;5092810;28;20048;-53
2022/02/15 11:26:05;;;;;;;1.80;1.70;;;;;;;6.32;80.31;95924.03;5091490;28;20040;-50
2022/02/15 11:28:31;;;;;;;1.70;1.60;;;;;;;6.21;80.42;95927.41;5091012;28;20032;-53
2022/02/15 11:31:01;;;;;;;3.90;1.90;;;;;;;6.07;79.86;95915.31;5093877;28;20082;-53